Main page
METAR-TAF:

METAR-TAF

Airports :

Bay City Municipal Airport

Bay City, Texas, United States

latitude: 28-58-23N, longitude: 095-51-48W, elevation: 46 ft

Current weather observation

The report was made 27 minutes ago, at 19:15 UTC
Wind 3 mph from the East/Southeast
Temperature 91°F
Humidity 56%
Pressure 29.92 in. Hg
Visibility: 10 miles
Scattered clouds at a height of 4000 ft
Scattered clouds at a height of 4900 ft
Scattered clouds at a height of 7000 ft

METAR: KBYY 141915Z AUTO 11003KT 10SM SCT040 SCT049 SCT070 33/23 A2992 RMK AO2 T03280236

Time: 14:42 (19:42 UTC)


TAF: missing

Weather observations and forecasts of more than 4000 airports (METAR and TAF reports).

The available stations are represented by yellow and red dots on the map.

Hover mouse over dot to see the name of the station.

Then click to see weather observations and forecasts.

To change the map : click on the green buttons with a black cross to zoom in, on the green button with a dash to zoom out, or on the green arrows for adjacent maps.


METAR-TAF: